Flight Track Log - Related Links

Times and Time Zones

All times are in EDT time to prevent confusion due to time zone crossing. See the N27XP flight status page for this flight to view local times or setup timezone preferences in your user account.

Time Position Orientation Groundspeed Altitude Reporting Facility
EDT Latitude Longitude Course Direction KTS MPH feet Rate Location/Type
Tue 08:57:25 AM 35.8561 -78.8083 246° West 163 188 1,500  Level Washington Center
Tue 08:58:47 AM 35.8336 -78.8714 246° West 173 199 4,800 2,333 Climbing Washington Center
Tue 08:59:49 AM 35.8503 -78.9489 285° West 173 199 7,100 2,350 Climbing Washington Center
Tue 09:00:47 AM 35.8561 -79.0339 275° West 216 249 9,500 2,593 Climbing Washington Center
Tue 09:01:47 AM 35.8469 -79.1333 264° West 252 290 12,200 2,529 Climbing Washington Center
Tue 09:02:48 AM 35.8422 -79.2281 267° West 281 323 14,600 2,262 Climbing Washington Center
Tue 09:03:49 AM 35.8350 -79.3200 264° West 281 323 16,800 2,033 Climbing Washington Center
Tue 09:04:49 AM 35.8281 -79.4092 265° West 273 314 18,700 1,914 Climbing Washington Center
Tue 09:06:32 AM 35.8144 -79.5728 264° West 270 311 22,000 1,546 Climbing Atlanta Center
Tue 09:07:32 AM 35.8133 -79.6650 269° West 275 316 22,900 700 Climbing Atlanta Center
Tue 09:08:32 AM 35.8242 -79.7900 276° West 305 351 23,400 1,050 Climbing Atlanta Center
Tue 09:09:32 AM 35.8322 -79.9047 275° West 326 375 25,000 1,500 Climbing Atlanta Center
Tue 09:10:32 AM 35.8381 -80.0172 274° West 333 383 26,400 1,400 Climbing Atlanta Center
Tue 09:11:32 AM 35.8458 -80.1269 275° West 333 383 27,800 1,350 Climbing Atlanta Center
Tue 09:12:32 AM 35.8572 -80.2264 278° West 328 377 29,100 1,100 Climbing Atlanta Center
Tue 09:13:32 AM 35.8981 -80.3294 296° West 323 372 30,000 1,050 Climbing Atlanta Center
Tue 09:14:32 AM 35.9386 -80.4303 296° West 335 386 31,200 1,100 Climbing Atlanta Center
Tue 09:15:32 AM 35.9789 -80.5286 297° West 335 386 32,200 1,050 Climbing Atlanta Center
Tue 09:16:32 AM 36.0233 -80.6292 299° West 335 386 33,300 900 Climbing Atlanta Center
Tue 09:17:32 AM 36.0678 -80.7303 299° West 335 386 34,000 350 Climbing Atlanta Center
Tue 09:18:32 AM 36.1125 -80.8364 298° West 341 392 34,000  Level Atlanta Center
Tue 09:19:32 AM 36.1636 -80.9603 297° West 346 398 34,000  Level Atlanta Center
Tue 09:20:32 AM 36.2144 -81.0792 298° West 377 434 34,000 550 Level Atlanta Center
Tue 09:21:32 AM 36.2631 -81.1933 298° West 382 440 35,100 1,000 Climbing Atlanta Center
Tue 09:22:32 AM 36.3094 -81.3050 297° West 375 432 36,000 450 Climbing Atlanta Center
Tue 09:23:32 AM 36.3556 -81.4194 297° West 370 426 36,000  Level Atlanta Center
Tue 09:24:32 AM 36.4039 -81.5367 297° West 375 432 36,000  Level Atlanta Center
Tue 09:25:32 AM 36.4522 -81.6589 296° West 383 441 36,000  Level Atlanta Center
Tue 09:27:26 AM 36.5381 -81.8667 297° West 389 448 36,000  Level Indianapolis Center
Tue 09:28:28 AM 36.5950 -82.0050 297° West 386 444 36,000  Level Indianapolis Center
Tue 09:29:30 AM 36.6439 -82.1253 297° West 388 447 36,000  Level Indianapolis Center
Tue 09:30:32 AM 36.6922 -82.2456 297° West 390 449 36,000  Level Indianapolis Center
Tue 09:31:34 AM 36.7414 -82.3669 297° West 390 449 36,000  Level Indianapolis Center
Tue 09:32:36 AM 36.7906 -82.4881 297° West 392 451 36,000  Level Indianapolis Center
Tue 09:33:38 AM 36.8392 -82.6108 296° West 394 453 36,000  Level Indianapolis Center
Tue 09:34:40 AM 36.8956 -82.7511 297° West 391 450 36,000  Level Indianapolis Center
Tue 09:35:42 AM 36.9458 -82.8808 296° West 401 461 36,000  Level Indianapolis Center
Tue 09:36:44 AM 36.9928 -82.9972 297° West 402 463 36,000  Level Indianapolis Center
Tue 09:37:46 AM 37.0489 -83.1414 296° West 399 459 36,000  Level Indianapolis Center
Tue 09:38:48 AM 37.0972 -83.2656 296° West 397 457 36,000  Level Indianapolis Center
Tue 09:39:50 AM 37.1461 -83.3906 296° West 398 458 36,000  Level Indianapolis Center
Tue 09:40:52 AM 37.1864 -83.5181 292° West 396 456 36,000  Level Indianapolis Center
Tue 09:41:54 AM 37.2233 -83.6472 290° West 392 451 36,000  Level Indianapolis Center
Tue 09:42:56 AM 37.2608 -83.7972 287° West 388 447 36,000  Level Indianapolis Center
Tue 09:43:58 AM 37.2786 -83.9281 280° West 382 440 36,000  Level Indianapolis Center
Tue 09:45:00 AM 37.2908 -84.0606 277° West 382 440 36,000  Level Indianapolis Center
Tue 09:46:02 AM 37.3103 -84.1908 281° West 379 436 36,000  Level Indianapolis Center
Tue 09:47:04 AM 37.3453 -84.3172 289° West 382 440 36,000  Level Indianapolis Center
Tue 09:48:06 AM 37.3958 -84.4350 298° West 381 438 36,000  Level Indianapolis Center
Tue 09:49:09 AM 37.4550 -84.5719 299° West 382 440 36,000  Level Indianapolis Center
Tue 09:50:11 AM 37.5036 -84.6900 297° West 380 437 36,000  Level Indianapolis Center
Tue 09:51:13 AM 37.5528 -84.8083 298° West 379 436 36,000  Level Indianapolis Center
Tue 09:52:15 AM 37.6008 -84.9253 297° West 376 433 36,000  Level Indianapolis Center
Tue 09:53:17 AM 37.6472 -85.0419 297° West 373 429 36,000  Level Indianapolis Center
Tue 09:54:19 AM 37.7006 -85.1767 297° West 366 421 36,000 -339 Level Indianapolis Center
Tue 09:55:21 AM 37.7436 -85.2917 295° West 363 418 35,300 -726 Descending Indianapolis Center
Tue 09:56:23 AM 37.7864 -85.4064 295° West 360 414 34,500 -774 Descending Indianapolis Center
Tue 09:57:25 AM 37.8294 -85.5203 296° West 359 413 33,700 -726 Descending Indianapolis Center
Tue 09:58:27 AM 37.8750 -85.6378 296° West 370 426 33,000 -629 Descending Indianapolis Center
Tue 09:59:29 AM 37.9225 -85.7619 296° West 390 449 32,400 -484 Descending Indianapolis Center
Tue 10:00:31 AM 37.9700 -85.8889 295° West 399 459 32,000 -194 Descending Indianapolis Center
Tue 10:01:33 AM 38.0264 -86.0406 295° West 396 456 32,000  Level Indianapolis Center
Tue 10:02:35 AM 38.0728 -86.1647 295° West 390 449 32,000  Level Indianapolis Center
Tue 10:03:37 AM 38.1183 -86.2894 295° West 389 448 32,000  Level Indianapolis Center
Tue 10:04:39 AM 38.1636 -86.4142 295° West 390 449 32,000  Level Indianapolis Center
Tue 10:05:41 AM 38.2103 -86.5397 295° West 393 452 32,000  Level Indianapolis Center
Tue 10:06:43 AM 38.2556 -86.6658 295° West 392 451 32,000  Level Indianapolis Center
Tue 10:07:46 AM 38.3017 -86.7903 295° West 391 450 32,000  Level Indianapolis Center
Tue 10:08:48 AM 38.3556 -86.9408 295° West 395 455 32,000  Level Indianapolis Center
Tue 10:09:50 AM 38.4019 -87.0706 295° West 402 463 32,000  Level Indianapolis Center
Tue 10:10:52 AM 38.4467 -87.1947 295° West 401 461 32,000  Level Indianapolis Center
Tue 10:11:54 AM 38.4925 -87.3239 294° West 401 461 32,000  Level Indianapolis Center
Tue 10:12:56 AM 38.5472 -87.4794 294° West 401 461 32,000  Level Indianapolis Center
Tue 10:13:58 AM 38.5933 -87.6092 294° West 400 460 32,000  Level Indianapolis Center
Tue 10:15:00 AM 38.6389 -87.7397 294° West 402 463 32,000  Level Indianapolis Center
Tue 10:16:02 AM 38.6844 -87.8686 294° West 398 458 32,000  Level Indianapolis Center
Tue 10:17:04 AM 38.7297 -88.0000 294° West 401 461 32,000  Level Indianapolis Center
Tue 10:18:06 AM 38.7750 -88.1311 294° West 401 461 32,000  Level Indianapolis Center
Tue 10:19:08 AM 38.8203 -88.2614 294° West 401 461 32,000  Level Indianapolis Center
Tue 10:20:10 AM 38.8747 -88.4178 294° West 400 460 32,000  Level Indianapolis Center
Tue 10:21:12 AM 38.9194 -88.5506 293° West 403 464 32,000  Level Indianapolis Center
Tue 10:22:14 AM 38.9642 -88.6817 294° West 402 463 32,000  Level Indianapolis Center
Tue 10:23:16 AM 39.0089 -88.8133 294° West 402 463 32,000  Level Indianapolis Center
Tue 10:24:18 AM 39.0528 -88.9467 293° West 402 463 32,000  Level Indianapolis Center
Tue 10:25:20 AM 39.0975 -89.0800 293° West 404 465 32,000  Level Indianapolis Center
Tue 10:26:22 AM 39.1417 -89.2108 294° West 400 460 32,000  Level Indianapolis Center
Tue 10:27:50 AM 39.2050 -89.4036 293° West 399 459 32,000  Level Kansas City Center
Tue 10:28:52 AM 39.2564 -89.5567 293° West 392 451 32,000  Level Kansas City Center
Tue 10:29:54 AM 39.2986 -89.6858 293° West 392 451 32,000  Level Kansas City Center
Tue 10:30:56 AM 39.3403 -89.8131 293° West 390 449 32,000  Level Kansas City Center
Tue 10:31:58 AM 39.3817 -89.9414 293° West 390 449 32,000  Level Kansas City Center
Tue 10:33:00 AM 39.4233 -90.0678 293° West 387 445 32,000  Level Kansas City Center
Tue 10:34:02 AM 39.4728 -90.2231 292° West 392 451 32,000  Level Kansas City Center
Tue 10:35:04 AM 39.5142 -90.3506 293° West 389 448 32,000  Level Kansas City Center
Tue 10:36:07 AM 39.5547 -90.4775 293° West 386 444 32,000  Level Kansas City Center
Tue 10:37:09 AM 39.5958 -90.6042 293° West 384 442 32,000  Level Kansas City Center
Tue 10:38:11 AM 39.6353 -90.7314 292° West 383 441 32,000  Level Kansas City Center
Tue 10:39:13 AM 39.6758 -90.8597 292° West 385 443 32,000 -129 Level Kansas City Center
Tue 10:41:17 AM 39.7639 -91.1442 292° West 387 445 31,600 -387 Descending Kansas City Center
Tue 10:42:19 AM 39.8039 -91.2714 292° West 398 458 30,800 -774 Descending Kansas City Center
Tue 10:43:21 AM 39.8456 -91.4044 292° West 400 460 30,000 -387 Descending Kansas City Center
Tue 10:44:23 AM 39.8931 -91.5625 291° West 396 456 30,000  Level Kansas City Center
Tue 10:45:25 AM 39.9328 -91.6928 292° West 392 451 30,000  Level Kansas City Center
Tue 10:46:27 AM 39.9717 -91.8222 291° West 388 447 30,000  Level Kansas City Center
Tue 10:47:29 AM 40.0108 -91.9506 292° West 385 443 30,000  Level Kansas City Center
Tue 10:48:31 AM 40.0494 -92.0775 292° West 380 437 30,000  Level Kansas City Center
Tue 10:49:33 AM 40.0953 -92.2286 292° West 376 433 30,000  Level Kansas City Center
Tue 10:50:35 AM 40.1344 -92.3614 291° West 374 430 30,000  Level Kansas City Center
Tue 10:51:37 AM 40.1689 -92.4817 291° West 371 427 30,000  Level Kansas City Center
Tue 10:52:39 AM 40.2131 -92.6278 292° West 381 438 30,000  Level Kansas City Center
Tue 10:53:41 AM 40.2489 -92.7500 291° West 378 435 30,000  Level Kansas City Center
Tue 10:54:43 AM 40.2911 -92.8942 291° West 379 436 30,000  Level Kansas City Center
Tue 10:55:45 AM 40.3275 -93.0178 291° West 380 437 30,000  Level Kansas City Center
Tue 10:56:47 AM 40.3675 -93.1581 291° West 381 438 30,000  Level Kansas City Center
Tue 10:57:49 AM 40.4050 -93.2872 291° West 382 440 30,000  Level Kansas City Center
Tue 10:58:51 AM 40.4425 -93.4175 291° West 383 441 30,000  Level Kansas City Center
Tue 10:59:54 AM 40.4797 -93.5469 291° West 383 441 30,000  Level Kansas City Center
Tue 11:00:56 AM 40.5161 -93.6767 290° West 382 440 30,000  Level Kansas City Center
Tue 11:01:50 AM 40.5503 -93.8064 289° West 382 440 30,000  Level Minneapolis Center
Tue 11:02:52 AM 40.5869 -93.9369 290° West 384 442 30,000  Level Minneapolis Center
Tue 11:04:06 AM 40.6142 -94.0725 285° West 386 444 30,000 -309 Level Minneapolis Center
Tue 11:05:08 AM 40.6447 -94.2647 282° West 387 445 29,300 -1,210 Descending Minneapolis Center
Tue 11:06:10 AM 40.6656 -94.3986 282° West 382 440 27,500 -1,984 Descending Minneapolis Center
Tue 11:07:12 AM 40.6872 -94.5289 282° West 372 428 25,200 -2,371 Descending Minneapolis Center
Tue 11:08:14 AM 40.7108 -94.6742 282° West 370 426 22,600 -2,371 Descending Minneapolis Center
Tue 11:09:16 AM 40.7314 -94.8017 282° West 359 413 20,300 -1,985 Descending Minneapolis Center
Tue 11:10:30 AM 40.7506 -94.9197 282° West 338 389 18,100 -2,081 Descending Minneapolis Center
Tue 11:11:20 AM 40.8131 -95.0217 309° West 317 365 16,000 -2,455 Descending Minneapolis Center
Tue 11:12:20 AM 40.8603 -95.1203 302° West 315 362 13,600 -2,430 Descending Minneapolis Center
Tue 11:13:21 AM 40.9064 -95.2083 305° West 295 339 11,100 -2,029 Descending Minneapolis Center
Tue 11:14:39 AM 40.9456 -95.3061 298° West 285 328 8,900 -2,033 Descending Minneapolis Center
Tue 11:15:22 AM 40.9914 -95.3689 314° West 249 287 7,000 -2,135 Descending Minneapolis Center
Tue 11:16:23 AM 41.0253 -95.4642 295° West 269 310 5,200 -992 Descending Minneapolis Center
Tue 11:17:23 AM 41.0522 -95.5522 292° West 264 304 5,000 -99 Descending Minneapolis Center
Tue 11:18:24 AM 41.0864 -95.6228 303° West 217 250 5,000  Level Minneapolis Center
Tue 11:19:19 AM 41.1133 -95.6806 302° West 187 215 5,000 -124 Level Minneapolis Center
Tue 11:20:01 AM 41.1200 -95.6978 297° West 215 247 4,800 -743 Descending Minneapolis Center
Tue 11:21:04 AM 41.1572 -95.7767 302° West 192 221 3,700 -864 Descending Minneapolis Center
Tue 11:22:06 AM 41.1825 -95.8344 300° West 186 214 3,000 -435 Descending Minneapolis Center
Tue 11:23:08 AM 41.2089 -95.8792 308° West 169 194 2,800 -435 Descending Minneapolis Center
Tue 11:24:10 AM 41.2469 -95.8953 342° North 156 180 2,100 -677 Descending Minneapolis Center
Tue 11:25:12 AM 41.2747 -95.8939 North 138 159 1,400 -677 Descending Minneapolis Center
Tue 11:27:00 AM 41.3000 -95.8833 323° Northwest  Level FlightAware Approximate

Login

Don't have an account? Register now (free) for customized features, flight alerts, and more!